sensor_id;sensor_type;location;lat;lon;timestamp;pressure;altitude;pressure_sealevel;temperature;humidity
82375;BME280;72005;50.496;15.798;2023-08-31T00:00:49;95036.91;;;13.10;89.68
82375;BME280;72005;50.496;15.798;2023-08-31T00:03:30;95043.50;;;13.07;89.93
82375;BME280;72005;50.496;15.798;2023-08-31T00:05:55;95045.06;;;13.08;89.64
82375;BME280;72005;50.496;15.798;2023-08-31T00:08:22;95049.00;;;13.11;89.90
82375;BME280;72005;50.496;15.798;2023-08-31T00:10:57;95050.28;;;13.14;89.92
82375;BME280;72005;50.496;15.798;2023-08-31T00:13:23;95054.47;;;13.15;89.85
82375;BME280;72005;50.496;15.798;2023-08-31T00:15:49;95036.53;;;13.17;89.85
82375;BME280;72005;50.496;15.798;2023-08-31T00:18:15;95038.19;;;13.13;89.55
82375;BME280;72005;50.496;15.798;2023-08-31T00:20:42;95039.47;;;13.15;89.68
82375;BME280;72005;50.496;15.798;2023-08-31T00:23:08;95044.44;;;13.17;89.46
82375;BME280;72005;50.496;15.798;2023-08-31T00:25:34;95041.81;;;13.17;89.53
82375;BME280;72005;50.496;15.798;2023-08-31T00:27:59;95038.97;;;13.13;89.41
82375;BME280;72005;50.496;15.798;2023-08-31T00:30:31;95039.22;;;13.12;89.38
82375;BME280;72005;50.496;15.798;2023-08-31T00:32:58;95041.09;;;13.11;89.58
82375;BME280;72005;50.496;15.798;2023-08-31T00:35:25;95047.44;;;13.10;89.46
82375;BME280;72005;50.496;15.798;2023-08-31T00:37:53;95036.69;;;13.06;89.50
82375;BME280;72005;50.496;15.798;2023-08-31T00:40:23;95035.88;;;13.06;89.44
82375;BME280;72005;50.496;15.798;2023-08-31T00:42:48;95040.09;;;13.07;89.71
82375;BME280;72005;50.496;15.798;2023-08-31T00:45:14;95047.50;;;13.05;89.81
82375;BME280;72005;50.496;15.798;2023-08-31T00:47:41;95042.03;;;13.01;89.73
82375;BME280;72005;50.496;15.798;2023-08-31T00:50:07;95044.66;;;13.01;89.80
82375;BME280;72005;50.496;15.798;2023-08-31T00:52:33;95052.34;;;12.98;89.57
82375;BME280;72005;50.496;15.798;2023-08-31T00:55:00;95050.28;;;12.95;89.65
82375;BME280;72005;50.496;15.798;2023-08-31T00:57:30;95048.53;;;12.85;90.03
82375;BME280;72005;50.496;15.798;2023-08-31T00:59:56;95057.53;;;12.84;90.00
82375;BME280;72005;50.496;15.798;2023-08-31T01:02:39;95046.25;;;12.78;90.27
82375;BME280;72005;50.496;15.798;2023-08-31T01:10:47;95052.31;;;12.79;90.44
82375;BME280;72005;50.496;15.798;2023-08-31T01:13:22;95046.47;;;12.82;90.40
82375;BME280;72005;50.496;15.798;2023-08-31T01:15:53;95043.31;;;12.80;90.62
82375;BME280;72005;50.496;15.798;2023-08-31T01:18:22;95038.91;;;12.75;90.82
82375;BME280;72005;50.496;15.798;2023-08-31T01:23:50;95054.00;;;12.70;90.99
82375;BME280;72005;50.496;15.798;2023-08-31T01:26:17;95042.13;;;12.72;91.21
82375;BME280;72005;50.496;15.798;2023-08-31T01:28:43;95040.53;;;12.71;91.08
82375;BME280;72005;50.496;15.798;2023-08-31T01:31:09;95045.53;;;12.73;91.21
82375;BME280;72005;50.496;15.798;2023-08-31T01:33:34;95042.91;;;12.73;91.35
82375;BME280;72005;50.496;15.798;2023-08-31T01:36:04;95039.19;;;12.74;91.11
82375;BME280;72005;50.496;15.798;2023-08-31T01:38:35;95041.34;;;12.72;91.51
82375;BME280;72005;50.496;15.798;2023-08-31T01:41:06;95039.75;;;12.71;91.73
82375;BME280;72005;50.496;15.798;2023-08-31T01:43:33;95033.91;;;12.74;91.35
82375;BME280;72005;50.496;15.798;2023-08-31T01:46:01;95041.34;;;12.72;91.44
82375;BME280;72005;50.496;15.798;2023-08-31T01:48:26;95035.50;;;12.75;91.22
82375;BME280;72005;50.496;15.798;2023-08-31T01:50:53;95034.38;;;12.81;91.11
82375;BME280;72005;50.496;15.798;2023-08-31T01:53:18;95038.78;;;12.85;91.31
82375;BME280;72005;50.496;15.798;2023-08-31T01:55:44;95037.16;;;12.90;91.30
82375;BME280;72005;50.496;15.798;2023-08-31T01:58:10;95028.94;;;12.91;91.26
82375;BME280;72005;50.496;15.798;2023-08-31T02:00:35;95029.97;;;12.95;91.18
82375;BME280;72005;50.496;15.798;2023-08-31T02:03:03;95040.72;;;12.99;91.01
82375;BME280;72005;50.496;15.798;2023-08-31T02:05:29;95049.34;;;13.04;91.25
82375;BME280;72005;50.496;15.798;2023-08-31T02:07:55;95049.56;;;13.08;91.00
82375;BME280;72005;50.496;15.798;2023-08-31T02:10:21;95049.00;;;13.11;91.17
82375;BME280;72005;50.496;15.798;2023-08-31T02:12:46;95044.50;;;13.12;90.98
82375;BME280;72005;50.496;15.798;2023-08-31T02:15:12;95050.78;;;13.16;91.15
82375;BME280;72005;50.496;15.798;2023-08-31T02:17:38;95048.38;;;13.19;90.94
82375;BME280;72005;50.496;15.798;2023-08-31T02:20:04;95054.63;;;13.23;90.90
82375;BME280;72005;50.496;15.798;2023-08-31T02:22:33;95050.16;;;13.24;90.58
82375;BME280;72005;50.496;15.798;2023-08-31T02:24:59;95051.47;;;13.26;90.52
82375;BME280;72005;50.496;15.798;2023-08-31T02:27:26;95058.13;;;13.19;90.67
82375;BME280;72005;50.496;15.798;2023-08-31T02:29:52;95054.72;;;13.18;90.53
82375;BME280;72005;50.496;15.798;2023-08-31T02:32:19;95048.66;;;13.18;90.66
82375;BME280;72005;50.496;15.798;2023-08-31T02:34:45;95055.28;;;13.15;90.78
82375;BME280;72005;50.496;15.798;2023-08-31T02:37:11;95048.44;;;13.14;90.78
82375;BME280;72005;50.496;15.798;2023-08-31T02:39:36;95049.22;;;13.15;90.58
82375;BME280;72005;50.496;15.798;2023-08-31T02:42:02;95050.78;;;13.16;90.50
82375;BME280;72005;50.496;15.798;2023-08-31T02:44:28;95043.94;;;13.15;90.57
82375;BME280;72005;50.496;15.798;2023-08-31T02:46:54;95056.13;;;13.10;90.75
82375;BME280;72005;50.496;15.798;2023-08-31T02:49:19;95050.91;;;13.05;90.87
82375;BME280;72005;50.496;15.798;2023-08-31T02:51:45;95048.56;;;13.04;90.60
82375;BME280;72005;50.496;15.798;2023-08-31T02:54:11;95052.06;;;12.99;90.71
82375;BME280;72005;50.496;15.798;2023-08-31T02:56:36;95047.56;;;13.00;90.78
82375;BME280;72005;50.496;15.798;2023-08-31T02:59:02;95054.47;;;12.96;90.60
82375;BME280;72005;50.496;15.798;2023-08-31T03:01:28;95045.84;;;12.90;90.74
82375;BME280;72005;50.496;15.798;2023-08-31T03:03:54;95044.34;;;12.84;90.79
82375;BME280;72005;50.496;15.798;2023-08-31T03:06:19;95042.28;;;12.81;90.82
82375;BME280;72005;50.496;15.798;2023-08-31T03:08:45;95043.31;;;12.80;90.96
82375;BME280;72005;50.496;15.798;2023-08-31T03:11:11;95037.00;;;12.81;90.59
82375;BME280;72005;50.496;15.798;2023-08-31T03:13:39;95040.13;;;12.83;90.73
82375;BME280;72005;50.496;15.798;2023-08-31T03:16:05;95039.59;;;12.86;90.79
82375;BME280;72005;50.496;15.798;2023-08-31T03:18:31;95038.50;;;12.87;90.69
82375;BME280;72005;50.496;15.798;2023-08-31T03:20:56;95039.78;;;12.90;90.52
82375;BME280;72005;50.496;15.798;2023-08-31T03:23:22;95047.13;;;12.93;90.50
82375;BME280;72005;50.496;15.798;2023-08-31T03:25:48;95043.72;;;12.92;90.52
82375;BME280;72005;50.496;15.798;2023-08-31T03:28:14;95052.19;;;12.89;90.67
82375;BME280;72005;50.496;15.798;2023-08-31T03:30:39;95045.34;;;12.88;90.48
82375;BME280;72005;50.496;15.798;2023-08-31T03:33:05;95050.59;;;12.88;90.30
82375;BME280;72005;50.496;15.798;2023-08-31T03:35:39;95054.53;;;12.91;90.55
82375;BME280;72005;50.496;15.798;2023-08-31T03:38:05;95053.69;;;12.95;90.29
82375;BME280;72005;50.496;15.798;2023-08-31T03:40:31;95059.19;;;12.99;90.61
82375;BME280;72005;50.496;15.798;2023-08-31T03:42:57;95055.19;;;13.01;90.41
82375;BME280;72005;50.496;15.798;2023-08-31T03:45:22;95059.69;;;13.01;90.22
82375;BME280;72005;50.496;15.798;2023-08-31T03:47:48;95053.53;;;12.86;90.39
82375;BME280;72005;50.496;15.798;2023-08-31T03:50:14;95066.47;;;12.83;89.86
82375;BME280;72005;50.496;15.798;2023-08-31T03:52:40;95058.66;;;12.78;90.27
82375;BME280;72005;50.496;15.798;2023-08-31T03:55:05;95066.00;;;12.81;90.23
82375;BME280;72005;50.496;15.798;2023-08-31T03:57:31;95056.44;;;12.85;90.22
82375;BME280;72005;50.496;15.798;2023-08-31T03:59:57;95056.97;;;12.87;90.28
82375;BME280;72005;50.496;15.798;2023-08-31T04:02:23;95059.03;;;12.90;90.16
82375;BME280;72005;50.496;15.798;2023-08-31T04:04:48;95058.25;;;12.90;90.38
82375;BME280;72005;50.496;15.798;2023-08-31T04:07:14;95056.19;;;12.86;90.30
82375;BME280;72005;50.496;15.798;2023-08-31T04:09:40;95065.66;;;12.87;90.06
82375;BME280;72005;50.496;15.798;2023-08-31T04:12:06;95064.09;;;12.86;90.02
82375;BME280;72005;50.496;15.798;2023-08-31T04:14:32;95069.13;;;12.83;89.97
82375;BME280;72005;50.496;15.798;2023-08-31T04:16:57;95064.66;;;12.83;90.06
82375;BME280;72005;50.496;15.798;2023-08-31T04:19:23;95072.25;;;12.85;89.94
82375;BME280;72005;50.496;15.798;2023-08-31T04:21:56;95072.47;;;12.88;90.11
82375;BME280;72005;50.496;15.798;2023-08-31T04:24:21;95076.41;;;12.91;90.15
82375;BME280;72005;50.496;15.798;2023-08-31T04:26:47;95076.91;;;12.93;90.21
82375;BME280;72005;50.496;15.798;2023-08-31T04:29:15;95072.16;;;12.95;90.00
82375;BME280;72005;50.496;15.798;2023-08-31T04:31:41;95077.41;;;12.95;89.82
82375;BME280;72005;50.496;15.798;2023-08-31T04:34:06;95076.06;;;12.98;89.95
82375;BME280;72005;50.496;15.798;2023-08-31T04:36:33;95076.84;;;12.98;89.71
82375;BME280;72005;50.496;15.798;2023-08-31T04:38:59;95082.13;;;12.98;89.57
82375;BME280;72005;50.496;15.798;2023-08-31T04:41:25;95081.91;;;12.95;89.28
82375;BME280;72005;50.496;15.798;2023-08-31T04:43:50;95083.19;;;12.97;89.29
82375;BME280;72005;50.496;15.798;2023-08-31T04:46:17;95083.25;;;12.92;89.39
82375;BME280;72005;50.496;15.798;2023-08-31T04:48:42;95079.03;;;12.91;89.40
82375;BME280;72005;50.496;15.798;2023-08-31T04:51:33;95087.50;;;12.88;89.12
82375;BME280;72005;50.496;15.798;2023-08-31T04:54:00;95088.53;;;12.92;89.46
82375;BME280;72005;50.496;15.798;2023-08-31T04:56:31;95085.94;;;12.87;89.18
82375;BME280;72005;50.496;15.798;2023-08-31T04:59:00;95083.59;;;12.85;89.17
82375;BME280;72005;50.496;15.798;2023-08-31T05:01:27;95085.50;;;12.80;89.25
82375;BME280;72005;50.496;15.798;2023-08-31T05:03:52;95093.47;;;12.75;89.12
82375;BME280;72005;50.496;15.798;2023-08-31T05:06:18;95098.22;;;12.73;89.41
82375;BME280;72005;50.496;15.798;2023-08-31T05:08:44;95104.13;;;12.64;89.51
82375;BME280;72005;50.496;15.798;2023-08-31T05:11:10;95110.16;;;12.65;89.58
82375;BME280;72005;50.496;15.798;2023-08-31T05:13:35;95119.56;;;12.71;89.75
82375;BME280;72005;50.496;15.798;2023-08-31T05:16:01;95120.59;;;12.75;89.87
82375;BME280;72005;50.496;15.798;2023-08-31T05:18:28;95118.69;;;12.81;89.78
82375;BME280;72005;50.496;15.798;2023-08-31T05:20:54;95119.81;;;12.75;89.95
82375;BME280;72005;50.496;15.798;2023-08-31T05:23:19;95118.75;;;12.76;89.72
82375;BME280;72005;50.496;15.798;2023-08-31T05:25:45;95119.25;;;12.78;89.89
82375;BME280;72005;50.496;15.798;2023-08-31T05:28:11;95116.38;;;12.74;89.93
82375;BME280;72005;50.496;15.798;2023-08-31T05:30:47;95117.41;;;12.78;89.84
82375;BME280;72005;50.496;15.798;2023-08-31T05:33:13;95115.56;;;12.79;89.91
82375;BME280;72005;50.496;15.798;2023-08-31T05:35:39;95115.00;;;12.82;89.86
82375;BME280;72005;50.496;15.798;2023-08-31T05:38:05;95117.56;;;12.87;90.02
82375;BME280;72005;50.496;15.798;2023-08-31T05:40:31;95123.94;;;12.86;89.76
82375;BME280;72005;50.496;15.798;2023-08-31T05:42:56;95118.91;;;12.84;90.00
82375;BME280;72005;50.496;15.798;2023-08-31T05:45:22;95128.63;;;12.89;89.57
82375;BME280;72005;50.496;15.798;2023-08-31T05:47:48;95124.34;;;12.93;89.72
82375;BME280;72005;50.496;15.798;2023-08-31T05:50:14;95131.13;;;12.99;89.66
82375;BME280;72005;50.496;15.798;2023-08-31T05:52:40;95138.44;;;13.07;89.74
82375;BME280;72005;50.496;15.798;2023-08-31T05:55:10;95139.56;;;13.25;89.96
82375;BME280;72005;50.496;15.798;2023-08-31T05:57:35;95148.88;;;13.42;89.92
82375;BME280;72005;50.496;15.798;2023-08-31T06:00:04;95140.91;;;13.47;89.45
82375;BME280;72005;50.496;15.798;2023-08-31T06:02:32;95147.47;;;13.49;89.58
82375;BME280;72005;50.496;15.798;2023-08-31T06:04:58;95145.09;;;13.48;89.11
82375;BME280;72005;50.496;15.798;2023-08-31T06:07:24;95152.72;;;13.49;88.94
82375;BME280;72005;50.496;15.798;2023-08-31T06:09:49;95151.34;;;13.52;89.01
82375;BME280;72005;50.496;15.798;2023-08-31T06:12:15;95160.91;;;13.48;88.68
82375;BME280;72005;50.496;15.798;2023-08-31T06:14:41;95160.66;;;13.49;88.53
82375;BME280;72005;50.496;15.798;2023-08-31T06:17:07;95155.91;;;13.46;88.60
82375;BME280;72005;50.496;15.798;2023-08-31T06:19:34;95160.91;;;13.48;88.52
82375;BME280;72005;50.496;15.798;2023-08-31T06:21:59;95155.06;;;13.51;88.21
82375;BME280;72005;50.496;15.798;2023-08-31T06:24:25;95165.69;;;13.46;88.30
82375;BME280;72005;50.496;15.798;2023-08-31T06:26:51;95166.97;;;13.48;88.29
82375;BME280;72005;50.496;15.798;2023-08-31T06:29:17;95171.31;;;13.39;88.13
82375;BME280;72005;50.496;15.798;2023-08-31T06:31:43;95169.25;;;13.36;88.21
82375;BME280;72005;50.496;15.798;2023-08-31T06:34:09;95173.75;;;13.36;88.20
82375;BME280;72005;50.496;15.798;2023-08-31T06:36:34;95183.78;;;13.34;88.41
82375;BME280;72005;50.496;15.798;2023-08-31T06:39:00;95187.97;;;13.35;88.17
82375;BME280;72005;50.496;15.798;2023-08-31T06:41:26;95189.31;;;13.32;88.17
82375;BME280;72005;50.496;15.798;2023-08-31T06:43:52;95186.16;;;13.35;88.29
82375;BME280;72005;50.496;15.798;2023-08-31T06:46:18;95186.16;;;13.35;88.50
82375;BME280;72005;50.496;15.798;2023-08-31T06:48:44;95193.97;;;13.40;88.68
82375;BME280;72005;50.496;15.798;2023-08-31T06:51:10;95189.72;;;13.44;88.47
82375;BME280;72005;50.496;15.798;2023-08-31T06:53:35;95189.72;;;13.44;88.48
82375;BME280;72005;50.496;15.798;2023-08-31T06:56:02;95187.03;;;13.49;88.60
82375;BME280;72005;50.496;15.798;2023-08-31T06:58:29;95195.44;;;13.51;88.55
82375;BME280;72005;50.496;15.798;2023-08-31T07:00:55;95189.59;;;13.54;88.38
82375;BME280;72005;50.496;15.798;2023-08-31T07:03:22;95189.59;;;13.54;88.40
82375;BME280;72005;50.496;15.798;2023-08-31T07:05:48;95194.88;;;13.54;88.33
82375;BME280;72005;50.496;15.798;2023-08-31T07:08:13;95185.91;;;13.56;88.20
82375;BME280;72005;50.496;15.798;2023-08-31T07:10:39;95200.38;;;13.58;88.13
82375;BME280;72005;50.496;15.798;2023-08-31T07:13:05;95194.28;;;13.58;88.17
82375;BME280;72005;50.496;15.798;2023-08-31T07:15:31;95201.16;;;13.59;88.06
82375;BME280;72005;50.496;15.798;2023-08-31T07:17:57;95204.84;;;13.58;88.35
82375;BME280;72005;50.496;15.798;2023-08-31T07:20:23;95207.22;;;13.59;88.20
82375;BME280;72005;50.496;15.798;2023-08-31T07:22:49;95206.44;;;13.59;88.09
82375;BME280;72005;50.496;15.798;2023-08-31T07:25:15;95207.00;;;13.56;88.09
82375;BME280;72005;50.496;15.798;2023-08-31T07:27:40;95212.78;;;13.58;88.29
82375;BME280;72005;50.496;15.798;2023-08-31T07:30:07;95222.28;;;13.59;88.32
82375;BME280;72005;50.496;15.798;2023-08-31T07:32:33;95224.34;;;13.62;88.03
82375;BME280;72005;50.496;15.798;2023-08-31T07:34:59;95220.94;;;13.61;88.27
82375;BME280;72005;50.496;15.798;2023-08-31T07:37:24;95224.84;;;13.64;87.94
82375;BME280;72005;50.496;15.798;2023-08-31T07:39:50;95232.06;;;13.58;87.99
82375;BME280;72005;50.496;15.798;2023-08-31T07:42:16;95242.03;;;13.61;87.91
82375;BME280;72005;50.496;15.798;2023-08-31T07:44:42;95242.59;;;13.58;87.91
82375;BME280;72005;50.496;15.798;2023-08-31T07:47:10;95235.22;;;13.55;87.64
82375;BME280;72005;50.496;15.798;2023-08-31T07:49:35;95232.84;;;13.59;87.72
82375;BME280;72005;50.496;15.798;2023-08-31T07:52:01;95223.06;;;13.59;87.68
82375;BME280;72005;50.496;15.798;2023-08-31T07:54:28;95229.06;;;13.65;87.71
82375;BME280;72005;50.496;15.798;2023-08-31T07:56:54;95223.28;;;13.63;87.84
82375;BME280;72005;50.496;15.798;2023-08-31T07:59:20;95230.13;;;13.64;87.66
82375;BME280;72005;50.496;15.798;2023-08-31T08:01:47;95242.25;;;13.65;87.95
82375;BME280;72005;50.496;15.798;2023-08-31T08:04:12;95235.84;;;13.71;88.21
82375;BME280;72005;50.496;15.798;2023-08-31T08:06:38;95239.78;;;13.73;88.11
82375;BME280;72005;50.496;15.798;2023-08-31T08:09:04;95236.84;;;13.75;87.65
82375;BME280;72005;50.496;15.798;2023-08-31T08:11:30;95240.75;;;13.77;87.81
82375;BME280;72005;50.496;15.798;2023-08-31T08:13:56;95248.91;;;13.81;87.89
82375;BME280;72005;50.496;15.798;2023-08-31T08:16:22;95253.34;;;13.86;88.03
82375;BME280;72005;50.496;15.798;2023-08-31T08:18:49;95253.06;;;13.87;87.87
82375;BME280;72005;50.496;15.798;2023-08-31T08:21:15;95255.41;;;13.89;87.80
82375;BME280;72005;50.496;15.798;2023-08-31T08:23:40;95246.13;;;13.91;87.75
82375;BME280;72005;50.496;15.798;2023-08-31T08:26:06;95260.34;;;13.95;87.66
82375;BME280;72005;50.496;15.798;2023-08-31T08:28:33;95270.06;;;14.00;87.32
82375;BME280;72005;50.496;15.798;2023-08-31T08:31:01;95277.69;;;14.02;87.82
82375;BME280;72005;50.496;15.798;2023-08-31T08:33:29;95278.19;;;14.04;87.61
82375;BME280;72005;50.496;15.798;2023-08-31T08:35:56;95273.19;;;14.02;87.49
82375;BME280;72005;50.496;15.798;2023-08-31T08:38:22;95283.75;;;14.02;87.35
82375;BME280;72005;50.496;15.798;2023-08-31T08:40:48;95283.25;;;14.00;87.15
82375;BME280;72005;50.496;15.798;2023-08-31T08:43:13;95285.13;;;13.99;87.22
82375;BME280;72005;50.496;15.798;2023-08-31T08:45:39;95282.41;;;14.05;87.27
82375;BME280;72005;50.496;15.798;2023-08-31T08:48:08;95289.41;;;14.14;87.70
82375;BME280;72005;50.496;15.798;2023-08-31T08:50:35;95293.84;;;14.19;87.78
82375;BME280;72005;50.496;15.798;2023-08-31T08:53:05;95298.56;;;14.22;87.54
82375;BME280;72005;50.496;15.798;2023-08-31T08:55:32;95301.97;;;14.22;87.39
82375;BME280;72005;50.496;15.798;2023-08-31T08:57:59;95302.97;;;14.27;87.43
82375;BME280;72005;50.496;15.798;2023-08-31T09:00:26;95304.13;;;14.39;87.93
82375;BME280;72005;50.496;15.798;2023-08-31T09:02:53;95308.22;;;14.51;88.00
82375;BME280;72005;50.496;15.798;2023-08-31T09:05:19;95300.25;;;14.56;87.73
82375;BME280;72005;50.496;15.798;2023-08-31T09:08:05;95306.50;;;14.60;87.75
82375;BME280;72005;50.496;15.798;2023-08-31T09:10:37;95301.25;;;14.93;88.23
82375;BME280;72005;50.496;15.798;2023-08-31T09:13:08;95310.16;;;15.29;88.62
82375;BME280;72005;50.496;15.798;2023-08-31T09:15:45;95312.53;;;15.58;88.08
82375;BME280;72005;50.496;15.798;2023-08-31T09:18:28;95304.72;;;15.81;87.42
82375;BME280;72005;50.496;15.798;2023-08-31T09:20:55;95297.16;;;16.02;87.11
82375;BME280;72005;50.496;15.798;2023-08-31T09:23:24;95302.84;;;16.23;86.51
82375;BME280;72005;50.496;15.798;2023-08-31T09:25:53;95297.63;;;16.32;85.17
82375;BME280;72005;50.496;15.798;2023-08-31T09:28:20;95309.06;;;16.41;84.70
82375;BME280;72005;50.496;15.798;2023-08-31T09:30:47;95296.19;;;16.48;84.50
82375;BME280;72005;50.496;15.798;2023-08-31T09:33:15;95304.94;;;16.49;82.51
82375;BME280;72005;50.496;15.798;2023-08-31T09:35:51;95311.72;;;16.41;82.88
82375;BME280;72005;50.496;15.798;2023-08-31T09:38:18;95307.66;;;16.57;83.65
82375;BME280;72005;50.496;15.798;2023-08-31T09:40:44;95318.50;;;16.83;83.19
82375;BME280;72005;50.496;15.798;2023-08-31T09:43:10;95317.63;;;16.97;82.85
82375;BME280;72005;50.496;15.798;2023-08-31T09:45:37;95314.97;;;16.97;81.47
82375;BME280;72005;50.496;15.798;2023-08-31T09:48:04;95313.38;;;16.87;80.89
82375;BME280;72005;50.496;15.798;2023-08-31T09:50:32;95309.94;;;16.73;80.11
82375;BME280;72005;50.496;15.798;2023-08-31T09:53:01;95313.59;;;16.63;80.64
82375;BME280;72005;50.496;15.798;2023-08-31T09:55:30;95308.72;;;16.56;80.67
82375;BME280;72005;50.496;15.798;2023-08-31T09:57:58;95323.69;;;16.52;81.06
82375;BME280;72005;50.496;15.798;2023-08-31T10:00:26;95322.81;;;16.43;80.21
82375;BME280;72005;50.496;15.798;2023-08-31T10:02:53;95314.78;;;16.34;79.60
82375;BME280;72005;50.496;15.798;2023-08-31T10:05:21;95318.59;;;16.28;80.27
82375;BME280;72005;50.496;15.798;2023-08-31T10:07:48;95318.72;;;16.23;80.65
82375;BME280;72005;50.496;15.798;2023-08-31T10:10:14;95312.84;;;16.12;80.90
82375;BME280;72005;50.496;15.798;2023-08-31T10:12:41;95312.78;;;16.04;80.57
82375;BME280;72005;50.496;15.798;2023-08-31T10:15:09;95324.75;;;16.01;80.85
82375;BME280;72005;50.496;15.798;2023-08-31T10:17:36;95329.84;;;15.97;81.45
82375;BME280;72005;50.496;15.798;2023-08-31T10:20:03;95323.09;;;15.91;81.37
82375;BME280;72005;50.496;15.798;2023-08-31T10:22:29;95325.06;;;15.86;81.35
82375;BME280;72005;50.496;15.798;2023-08-31T10:25:02;95325.13;;;15.81;81.44
82375;BME280;72005;50.496;15.798;2023-08-31T10:27:36;95326.31;;;15.88;82.05
82375;BME280;72005;50.496;15.798;2023-08-31T10:33:01;95331.06;;;16.41;83.22
82375;BME280;72005;50.496;15.798;2023-08-31T10:35:41;95346.53;;;16.48;81.96
82375;BME280;72005;50.496;15.798;2023-08-31T10:38:32;95333.88;;;16.45;80.72
82375;BME280;72005;50.496;15.798;2023-08-31T10:41:19;95342.53;;;16.51;81.20
82375;BME280;72005;50.496;15.798;2023-08-31T10:43:52;95356.34;;;16.61;80.42
82375;BME280;72005;50.496;15.798;2023-08-31T10:46:28;95348.59;;;16.51;79.04
82375;BME280;72005;50.496;15.798;2023-08-31T10:51:23;95352.00;;;16.29;79.07
82375;BME280;72005;50.496;15.798;2023-08-31T10:53:49;95337.47;;;16.27;78.85
82375;BME280;72005;50.496;15.798;2023-08-31T10:56:17;95344.72;;;16.35;79.68
82375;BME280;72005;50.496;15.798;2023-08-31T10:58:55;95337.06;;;16.33;79.53
82375;BME280;72005;50.496;15.798;2023-08-31T11:02:02;95352.97;;;16.19;78.26
82375;BME280;72005;50.496;15.798;2023-08-31T11:04:30;95345.03;;;16.19;78.11
82375;BME280;72005;50.496;15.798;2023-08-31T11:07:12;95340.03;;;16.04;77.62
82375;BME280;72005;50.496;15.798;2023-08-31T11:09:38;95342.97;;;16.16;78.82
82375;BME280;72005;50.496;15.798;2023-08-31T11:12:04;95343.94;;;16.34;79.49
82375;BME280;72005;50.496;15.798;2023-08-31T11:14:30;95340.56;;;16.42;77.89
82375;BME280;72005;50.496;15.798;2023-08-31T11:16:57;95343.50;;;16.55;78.94
82375;BME280;72005;50.496;15.798;2023-08-31T11:19:22;95342.66;;;16.68;78.85
82375;BME280;72005;50.496;15.798;2023-08-31T11:21:48;95339.50;;;16.80;78.41
82375;BME280;72005;50.496;15.798;2023-08-31T11:24:15;95335.19;;;16.84;77.68
82375;BME280;72005;50.496;15.798;2023-08-31T11:26:42;95342.44;;;16.92;77.59
82375;BME280;72005;50.496;15.798;2023-08-31T11:29:07;95351.19;;;16.92;78.01
82375;BME280;72005;50.496;15.798;2023-08-31T11:31:38;95345.75;;;16.98;77.72
82375;BME280;72005;50.496;15.798;2023-08-31T11:34:14;95349.00;;;16.95;77.47
82375;BME280;72005;50.496;15.798;2023-08-31T11:36:45;95349.59;;;16.91;77.17
82375;BME280;72005;50.496;15.798;2023-08-31T11:39:12;95347.25;;;16.90;77.32
82375;BME280;72005;50.496;15.798;2023-08-31T11:41:38;95340.63;;;17.01;78.11
82375;BME280;72005;50.496;15.798;2023-08-31T11:44:09;95338.03;;;17.10;76.73
82375;BME280;72005;50.496;15.798;2023-08-31T11:46:37;95342.91;;;17.17;76.74
82375;BME280;72005;50.496;15.798;2023-08-31T11:49:04;95342.47;;;17.23;75.80
82375;BME280;72005;50.496;15.798;2023-08-31T11:51:31;95340.34;;;17.34;76.12
82375;BME280;72005;50.496;15.798;2023-08-31T11:53:58;95331.53;;;17.47;75.56
82375;BME280;72005;50.496;15.798;2023-08-31T11:56:25;95330.63;;;17.60;76.03
82375;BME280;72005;50.496;15.798;2023-08-31T11:58:51;95326.63;;;17.72;75.70
82375;BME280;72005;50.496;15.798;2023-08-31T12:01:20;95336.41;;;17.85;75.98
82375;BME280;72005;50.496;15.798;2023-08-31T12:03:46;95331.44;;;18.01;76.16
82375;BME280;72005;50.496;15.798;2023-08-31T12:06:16;95336.63;;;18.15;75.82
82375;BME280;72005;50.496;15.798;2023-08-31T12:08:43;95339.97;;;18.29;74.91
82375;BME280;72005;50.496;15.798;2023-08-31T12:11:10;95337.16;;;18.34;73.48
82375;BME280;72005;50.496;15.798;2023-08-31T12:13:36;95330.13;;;18.47;74.40
82375;BME280;72005;50.496;15.798;2023-08-31T12:16:02;95329.34;;;18.64;74.17
82375;BME280;72005;50.496;15.798;2023-08-31T12:18:32;95333.91;;;18.63;72.84
82375;BME280;72005;50.496;15.798;2023-08-31T12:21:02;95344.69;;;18.49;72.00
82375;BME280;72005;50.496;15.798;2023-08-31T12:23:29;95347.50;;;18.36;72.29
82375;BME280;72005;50.496;15.798;2023-08-31T12:25:56;95351.69;;;18.19;71.67
82375;BME280;72005;50.496;15.798;2023-08-31T12:28:22;95363.66;;;17.99;72.14
82375;BME280;72005;50.496;15.798;2023-08-31T12:30:50;95356.16;;;17.70;71.77
82375;BME280;72005;50.496;15.798;2023-08-31T12:33:18;95360.03;;;17.33;72.24
82375;BME280;72005;50.496;15.798;2023-08-31T12:35:44;95367.03;;;17.06;73.15
82375;BME280;72005;50.496;15.798;2023-08-31T12:38:11;95366.31;;;16.92;74.26
82375;BME280;72005;50.496;15.798;2023-08-31T12:40:38;95367.97;;;16.88;75.65
82375;BME280;72005;50.496;15.798;2023-08-31T12:43:08;95373.09;;;16.84;76.08
82375;BME280;72005;50.496;15.798;2023-08-31T12:45:35;95366.72;;;16.85;77.10
82375;BME280;72005;50.496;15.798;2023-08-31T12:48:02;95377.03;;;16.87;77.30
82375;BME280;72005;50.496;15.798;2023-08-31T12:50:29;95378.47;;;16.93;77.25
82375;BME280;72005;50.496;15.798;2023-08-31T12:52:55;95387.41;;;16.97;77.51
82375;BME280;72005;50.496;15.798;2023-08-31T12:55:21;95385.63;;;17.06;77.75
82375;BME280;72005;50.496;15.798;2023-08-31T12:57:46;95375.97;;;17.10;77.71
82375;BME280;72005;50.496;15.798;2023-08-31T13:00:14;95380.50;;;17.10;77.21
82375;BME280;72005;50.496;15.798;2023-08-31T13:02:40;95377.16;;;17.04;76.79
82375;BME280;72005;50.496;15.798;2023-08-31T13:05:08;95374.44;;;16.96;76.47